Time;durP1;ratioP1;P1;durP2;ratioP2;P2;SDS_P1;SDS_P2;PMS_P1;PMS_P2;Temp;Humidity;BMP_temperature;BMP_pressure;BME280_temperature;BME280_humidity;BME280_pressure;Samples;Min_cycle;Max_cycle;Signal;HPM_P1;HPM_P2
2020/12/05 00:01:50;;;;;;;10.18;4.40;;;;;;;0.81;85.55;99056.59;5058463;28;20035;-67
2020/12/05 00:04:15;;;;;;;10.23;4.65;;;;;;;1.35;85.66;99159.63;5065942;28;20220;-67
2020/12/05 00:06:41;;;;;;;9.23;4.97;;;;;;;1.35;85.46;99174.53;5069296;28;20506;-67
2020/12/05 00:09:06;;;;;;;11.02;4.75;;;;;;;1.35;85.82;99169.28;5065958;28;20094;-67
2020/12/05 00:11:32;;;;;;;8.23;4.95;;;;;;;1.33;86.21;99176.47;5064725;28;20059;-67
2020/12/05 00:13:57;;;;;;;11.65;4.75;;;;;;;1.34;86.29;99180.75;5064817;28;20039;-69
2020/12/05 00:16:23;;;;;;;7.75;4.53;;;;;;;1.21;86.29;99167.88;5060100;28;20052;-67
2020/12/05 00:18:48;;;;;;;8.50;4.88;;;;;;;1.30;85.98;99179.34;5065774;28;20032;-67
2020/12/05 00:21:18;;;;;;;10.00;6.05;;;;;;;1.27;86.62;99182.28;5065677;28;20463;-67
2020/12/05 00:23:43;;;;;;;11.73;5.32;;;;;;;1.22;86.63;99186.13;5064817;28;20033;-66
2020/12/05 00:26:09;;;;;;;7.93;4.97;;;;;;;1.17;86.84;99180.44;5062203;28;20126;-67
2020/12/05 00:28:34;;;;;;;13.70;5.18;;;;;;;0.84;87.00;99142.16;5043138;28;20051;-69
2020/12/05 00:31:00;;;;;;;10.10;5.10;;;;;;;1.10;87.34;99196.84;5061950;28;20036;-69
2020/12/05 00:33:25;;;;;;;10.15;5.30;;;;;;;1.12;87.11;99195.78;5063296;28;20021;-69
2020/12/05 00:35:51;;;;;;;8.88;5.20;;;;;;;1.09;86.88;99197.84;5061259;28;20576;-69
2020/12/05 00:38:16;;;;;;;7.45;5.25;;;;;;;1.02;87.44;99203.63;5060016;28;20040;-69
2020/12/05 00:40:42;;;;;;;15.93;5.32;;;;;;;0.99;87.68;99217.00;5064914;28;20029;-67
2020/12/05 00:43:09;;;;;;;9.40;5.30;;;;;;;0.96;87.33;99221.69;5065215;28;20040;-67
2020/12/05 00:45:35;;;;;;;11.70;5.50;;;;;;;0.95;87.76;99220.84;5062312;28;20087;-67
2020/12/05 00:48:00;;;;;;;10.25;5.35;;;;;;;0.93;87.61;99225.44;5062266;28;20848;-67
2020/12/05 00:50:26;;;;;;;10.25;5.80;;;;;;;0.99;87.67;99234.59;5062478;28;20044;-67
2020/12/05 00:52:51;;;;;;;9.77;4.95;;;;;;;0.98;87.49;99235.53;5063773;28;20043;-67
2020/12/05 00:55:17;;;;;;;8.75;5.60;;;;;;;0.93;88.21;99235.09;5063463;28;20040;-69
2020/12/05 00:57:42;;;;;;;7.15;5.47;;;;;;;0.65;88.59;99206.75;5058821;28;20094;-69
2020/12/05 01:00:08;;;;;;;12.20;5.90;;;;;;;0.88;88.55;99240.75;5064610;28;20248;-67
2020/12/05 01:02:33;;;;;;;12.48;5.88;;;;;;;0.85;88.46;99246.25;5064263;28;20067;-67
2020/12/05 01:04:59;;;;;;;15.02;6.20;;;;;;;0.86;88.81;99255.78;5063390;28;20067;-67
2020/12/05 01:07:25;;;;;;;12.32;5.82;;;;;;;0.81;89.25;99250.94;5061501;28;20032;-67
2020/12/05 01:09:52;;;;;;;10.15;6.15;;;;;;;0.82;88.79;99257.84;5062391;28;20317;-66
2020/12/05 01:12:17;;;;;;;12.43;6.28;;;;;;;0.85;88.84;99264.63;5064892;28;20190;-69
2020/12/05 01:14:43;;;;;;;8.90;6.07;;;;;;;0.85;89.15;99265.47;5064734;28;20431;-69
2020/12/05 01:17:08;;;;;;;9.10;6.03;;;;;;;0.88;89.02;99265.19;5060263;28;20051;-68
2020/12/05 01:19:34;;;;;;;10.98;6.20;;;;;;;0.88;89.24;99278.31;5064271;28;20052;-66
2020/12/05 01:21:59;;;;;;;14.57;5.90;;;;;;;0.87;89.24;99281.09;5061861;28;20071;-66
2020/12/05 01:24:25;;;;;;;8.55;5.28;;;;;;;0.84;88.98;99281.34;5062933;28;20102;-66
2020/12/05 01:26:50;;;;;;;11.43;5.90;;;;;;;0.63;88.97;99253.31;5059268;28;20122;-66
2020/12/05 01:29:16;;;;;;;11.20;6.25;;;;;;;0.81;88.83;99297.38;5061153;28;20028;-67
2020/12/05 01:31:41;;;;;;;10.88;6.18;;;;;;;0.80;89.91;99296.53;5062753;28;20119;-67
2020/12/05 01:34:07;;;;;;;11.95;6.03;;;;;;;0.79;89.25;99299.31;5064511;28;20187;-67
2020/12/05 01:36:32;;;;;;;10.70;5.25;;;;;;;0.78;89.12;99301.06;5060588;28;20347;-68
2020/12/05 01:38:58;;;;;;;10.25;5.38;;;;;;;0.84;89.30;99292.69;5063889;28;20225;-69
2020/12/05 01:41:23;;;;;;;9.95;5.85;;;;;;;0.86;89.45;99295.19;5063733;28;20606;-68
2020/12/05 01:43:49;;;;;;;10.90;6.07;;;;;;;0.83;88.90;99296.28;5064114;28;20094;-66
2020/12/05 01:46:26;;;;;;;9.45;6.00;;;;;;;0.79;89.30;99291.41;5060434;28;20702;-66
2020/12/05 01:48:51;;;;;;;10.90;6.03;;;;;;;0.79;89.48;99291.41;5045690;28;20024;-66
2020/12/05 01:51:16;;;;;;;10.50;6.10;;;;;;;0.75;89.37;99291.66;5077421;28;20055;-66
2020/12/05 01:53:42;;;;;;;10.48;6.68;;;;;;;0.76;89.92;99293.34;5063985;28;20036;-67
2020/12/05 01:56:09;;;;;;;13.93;6.38;;;;;;;0.74;89.70;99294.44;5059686;28;20494;-67
2020/12/05 01:58:34;;;;;;;10.10;6.10;;;;;;;0.76;89.54;99297.75;5054744;28;20066;-67
2020/12/05 02:01:00;;;;;;;11.38;6.38;;;;;;;0.58;89.72;99271.22;5075809;28;20481;-66
2020/12/05 02:03:25;;;;;;;7.68;5.82;;;;;;;0.63;89.21;99270.84;5060413;28;20037;-67
2020/12/05 02:05:55;;;;;;;13.00;5.93;;;;;;;0.77;89.26;99302.03;5043513;28;20032;-67
2020/12/05 02:08:27;;;;;;;11.77;6.35;;;;;;;0.17;89.34;99207.25;5061396;28;20537;-66
2020/12/05 02:10:53;;;;;;;11.10;5.95;;;;;;;0.26;89.56;99223.06;5060766;28;20036;-67
2020/12/05 02:13:26;;;;;;;7.90;6.47;;;;;;;0.71;90.13;99292.88;5061308;28;20044;-67
2020/12/05 02:15:51;;;;;;;10.35;6.35;;;;;;;0.47;89.53;99261.63;5037196;28;20067;-66
2020/12/05 02:18:17;;;;;;;10.77;6.85;;;;;;;0.59;89.86;99281.63;5043342;28;20036;-68
2020/12/05 02:20:42;;;;;;;8.60;5.95;;;;;;;0.66;90.31;99294.22;5043281;28;20083;-67
2020/12/05 02:23:18;;;;;;;11.45;6.93;;;;;;;-0.28;90.25;99150.59;5043058;28;20037;-67
2020/12/05 02:25:44;;;;;;;12.45;6.88;;;;;;;0.58;90.64;99311.47;5055544;28;20629;-67
2020/12/05 02:28:10;;;;;;;13.07;6.70;;;;;;;0.59;90.79;99302.63;5060599;28;20170;-66
2020/12/05 02:30:36;;;;;;;10.73;6.50;;;;;;;0.56;90.51;99305.50;5061140;28;20032;-67
2020/12/05 02:33:02;;;;;;;11.98;6.68;;;;;;;0.56;90.90;99315.16;5062456;28;20024;-66
2020/12/05 02:35:27;;;;;;;13.55;7.20;;;;;;;0.59;90.12;99307.03;5056344;28;20044;-68
2020/12/05 02:37:55;;;;;;;8.82;5.88;;;;;;;0.66;90.55;99312.59;5058821;28;20498;-67
2020/12/05 02:40:20;;;;;;;11.68;6.45;;;;;;;0.57;89.82;99294.03;5060207;28;20125;-67
2020/12/05 02:42:46;;;;;;;7.80;5.93;;;;;;;0.70;89.77;99311.41;5060785;28;20111;-67
2020/12/05 02:45:11;;;;;;;8.38;5.50;;;;;;;0.70;89.41;99317.47;5061311;28;20499;-67
2020/12/05 02:47:37;;;;;;;10.38;5.72;;;;;;;0.76;89.44;99310.88;5032946;28;20028;-67
2020/12/05 02:50:03;;;;;;;8.75;5.88;;;;;;;0.59;89.34;99302.63;5054168;28;20037;-68
2020/12/05 02:52:28;;;;;;;6.55;5.63;;;;;;;0.64;90.22;99304.00;5059045;28;20043;-67
2020/12/05 02:54:53;;;;;;;10.80;6.32;;;;;;;0.66;90.47;99305.56;5063063;28;20398;-67
2020/12/05 02:57:19;;;;;;;11.48;6.47;;;;;;;0.63;90.60;99302.34;5057843;28;20047;-67
2020/12/05 02:59:44;;;;;;;9.25;5.78;;;;;;;0.60;90.69;99304.28;5060967;28;20098;-67
2020/12/05 03:02:10;;;;;;;8.68;6.20;;;;;;;0.61;90.37;99307.72;5063664;28;20040;-67
2020/12/05 03:04:35;;;;;;;12.85;6.72;;;;;;;0.62;90.56;99301.53;5060235;28;20040;-67
2020/12/05 03:07:05;;;;;;;11.20;6.90;;;;;;;0.62;90.64;99301.53;5059998;28;20124;-67
2020/12/05 03:09:33;;;;;;;11.40;6.38;;;;;;;0.64;90.42;99299.63;5059874;28;20082;-67
2020/12/05 03:11:59;;;;;;;12.02;6.10;;;;;;;0.56;90.28;99288.91;5061193;28;20024;-67
2020/12/05 03:14:24;;;;;;;15.02;6.20;;;;;;;0.73;89.61;99305.91;5059808;28;20626;-67
2020/12/05 03:16:50;;;;;;;13.88;6.28;;;;;;;0.72;89.30;99304.22;5061065;28;20040;-67
2020/12/05 03:19:15;;;;;;;13.02;6.10;;;;;;;0.68;89.38;99308.06;5060635;28;20033;-67
2020/12/05 03:21:41;;;;;;;9.85;5.80;;;;;;;0.67;89.80;99312.50;5062360;28;20449;-67
2020/12/05 03:24:06;;;;;;;10.05;5.70;;;;;;;0.64;89.46;99309.25;5077144;28;20056;-66
2020/12/05 03:26:32;;;;;;;6.63;5.32;;;;;;;0.64;89.86;99323.25;5050688;28;20044;-66
2020/12/05 03:28:58;;;;;;;14.02;6.53;;;;;;;0.60;90.13;99332.31;5052600;28;20040;-67
2020/12/05 03:31:38;;;;;;;11.10;6.38;;;;;;;0.57;89.95;99325.53;5059339;28;20060;-67
2020/12/05 03:34:05;;;;;;;10.35;5.93;;;;;;;0.53;90.61;99326.75;5060137;28;20033;-66
2020/12/05 03:36:30;;;;;;;9.05;5.75;;;;;;;0.51;90.46;99330.47;5061418;28;20121;-66
2020/12/05 03:38:56;;;;;;;15.60;6.80;;;;;;;0.49;90.75;99333.19;5064189;28;20040;-67
2020/12/05 03:41:23;;;;;;;13.45;6.10;;;;;;;0.51;90.25;99315.53;5070544;28;20044;-68
2020/12/05 03:43:49;;;;;;;9.30;6.38;;;;;;;0.52;90.02;99316.38;5064848;28;20494;-65
2020/12/05 03:46:15;;;;;;;10.80;6.03;;;;;;;0.48;90.57;99320.22;5061047;28;20366;-67
2020/12/05 03:48:40;;;;;;;11.38;6.50;;;;;;;0.43;90.93;99321.41;5058777;28;20029;-67
2020/12/05 03:51:06;;;;;;;7.72;5.82;;;;;;;0.44;91.23;99312.56;5064737;28;20041;-66
2020/12/05 03:53:31;;;;;;;14.65;7.28;;;;;;;0.44;90.96;99315.19;5065392;28;20450;-66
2020/12/05 03:55:57;;;;;;;12.18;6.80;;;;;;;0.45;91.22;99316.88;5061788;28;20052;-66
2020/12/05 03:58:22;;;;;;;10.40;6.72;;;;;;;0.45;90.99;99321.28;5060939;28;20043;-66
2020/12/05 04:00:48;;;;;;;11.82;6.45;;;;;;;0.44;91.15;99315.19;5061948;28;20048;-66
2020/12/05 04:03:13;;;;;;;12.40;6.28;;;;;;;0.44;91.44;99315.19;5062488;28;20044;-66
2020/12/05 04:05:39;;;;;;;9.45;6.40;;;;;;;0.49;90.41;99311.38;5065250;28;20041;-67
2020/12/05 04:08:07;;;;;;;13.25;6.25;;;;;;;0.52;90.66;99313.75;5063342;28;20044;-67
2020/12/05 04:10:33;;;;;;;8.77;5.78;;;;;;;0.52;90.12;99317.19;5066553;28;20032;-67
2020/12/05 04:12:58;;;;;;;9.82;6.10;;;;;;;0.54;89.98;99317.09;5066404;28;20036;-69
2020/12/05 04:15:24;;;;;;;7.68;6.30;;;;;;;0.52;90.06;99321.63;5066714;28;20977;-69
2020/12/05 04:17:49;;;;;;;9.95;6.55;;;;;;;0.51;90.04;99322.59;5064909;28;20040;-69
2020/12/05 04:20:15;;;;;;;10.98;6.97;;;;;;;0.47;91.08;99323.78;5079865;28;20040;-67
2020/12/05 04:22:40;;;;;;;10.38;6.65;;;;;;;0.33;91.46;99311.81;5065236;28;20045;-67
2020/12/05 04:25:06;;;;;;;12.75;7.38;;;;;;;0.41;91.68;99333.00;5064670;28;20510;-67
2020/12/05 04:27:31;;;;;;;11.20;6.57;;;;;;;0.38;91.20;99328.84;5065021;28;20045;-67
2020/12/05 04:29:57;;;;;;;13.63;6.68;;;;;;;0.36;91.89;99332.53;5064932;28;20048;-67
2020/12/05 04:32:22;;;;;;;14.00;7.53;;;;;;;0.33;91.66;99335.44;5065832;28;20040;-67
2020/12/05 04:34:47;;;;;;;13.00;6.65;;;;;;;0.34;92.50;99331.84;5076019;28;20048;-67
2020/12/05 04:37:13;;;;;;;11.27;6.70;;;;;;;-0.25;91.51;99242.09;5063864;28;20510;-67
2020/12/05 04:39:39;;;;;;;10.75;7.05;;;;;;;0.28;91.79;99333.16;5065187;28;20393;-67
2020/12/05 04:42:04;;;;;;;13.95;7.35;;;;;;;0.27;91.86;99332.31;5048097;28;20024;-67
2020/12/05 04:44:30;;;;;;;11.07;6.53;;;;;;;0.43;91.49;99341.59;5064195;28;20037;-67
2020/12/05 04:46:56;;;;;;;12.98;6.90;;;;;;;0.44;90.99;99332.75;5042880;28;20036;-67
2020/12/05 04:49:22;;;;;;;9.85;6.38;;;;;;;0.48;90.68;99344.66;5043890;28;20394;-67
2020/12/05 04:51:53;;;;;;;11.65;7.03;;;;;;;0.53;90.86;99339.88;5064720;28;20518;-67
2020/12/05 04:54:24;;;;;;;12.50;6.75;;;;;;;0.52;90.71;99338.19;5048776;28;20125;-69
2020/12/05 04:56:50;;;;;;;11.65;6.93;;;;;;;0.54;90.66;99336.28;5062143;28;20513;-69
2020/12/05 04:59:15;;;;;;;10.48;6.88;;;;;;;0.57;90.41;99343.06;5043101;28;20040;-69
2020/12/05 05:01:41;;;;;;;11.82;6.88;;;;;;;0.55;90.39;99345.81;5065229;28;20043;-67
2020/12/05 05:04:06;;;;;;;11.48;6.80;;;;;;;0.57;90.25;99343.06;5066028;28;20473;-67
2020/12/05 05:06:32;;;;;;;9.73;6.25;;;;;;;0.39;90.64;99325.25;5061022;28;20221;-69
2020/12/05 05:08:58;;;;;;;9.73;6.25;;;;;;;0.48;90.71;99328.06;5064937;28;20040;-66
2020/12/05 05:11:26;;;;;;;8.80;6.57;;;;;;;0.57;90.22;99343.91;5062857;28;20084;-66
2020/12/05 05:13:53;;;;;;;13.15;6.20;;;;;;;0.60;90.36;99350.69;5064768;28;20035;-66
2020/12/05 05:16:19;;;;;;;9.65;6.47;;;;;;;0.58;90.41;99363.97;5062558;28;20043;-68
2020/12/05 05:18:45;;;;;;;8.60;6.60;;;;;;;0.60;90.36;99372.56;5056021;28;20154;-66
2020/12/05 05:21:31;;;;;;;11.40;6.93;;;;;;;0.61;90.15;99366.31;5062430;28;20559;-66
2020/12/05 05:23:56;;;;;;;11.30;7.05;;;;;;;0.57;90.72;99357.03;5056167;28;20044;-68
2020/12/05 05:26:23;;;;;;;12.10;6.78;;;;;;;0.54;91.20;99365.16;5060646;28;20067;-66
2020/12/05 05:28:48;;;;;;;7.68;6.47;;;;;;;0.55;91.41;99368.59;5064690;28;20028;-66
2020/12/05 05:31:19;;;;;;;11.70;7.00;;;;;;;0.55;90.66;99372.09;5064387;28;20051;-68
2020/12/05 05:33:47;;;;;;;9.80;7.20;;;;;;;0.55;90.83;99369.47;5064885;28;20039;-69
2020/12/05 05:36:17;;;;;;;11.88;7.43;;;;;;;0.48;91.05;99370.06;5061154;28;20073;-67
2020/12/05 05:38:43;;;;;;;14.82;7.43;;;;;;;0.45;91.40;99374.63;5063127;28;20032;-67
2020/12/05 05:41:18;;;;;;;13.23;7.53;;;;;;;0.30;91.25;99353.06;5060732;28;20506;-68
2020/12/05 05:43:53;;;;;;;10.60;6.93;;;;;;;0.37;90.83;99377.03;5043754;28;20040;-67
2020/12/05 05:46:23;;;;;;;13.27;7.78;;;;;;;0.35;91.30;99376.31;5060283;28;20038;-69
2020/12/05 05:48:50;;;;;;;12.50;7.90;;;;;;;0.30;92.04;99373.22;5056707;28;20032;-69
2020/12/05 05:51:15;;;;;;;12.10;8.02;;;;;;;0.26;92.20;99383.13;5061886;28;20040;-69
2020/12/05 05:53:41;;;;;;;13.35;7.75;;;;;;;0.24;92.12;99385.03;5060328;28;20258;-67
2020/12/05 05:56:06;;;;;;;9.95;7.32;;;;;;;0.27;92.16;99389.22;5042683;28;20033;-67
2020/12/05 05:58:32;;;;;;;13.35;7.30;;;;;;;0.30;92.24;99399.47;5026653;28;20039;-66
2020/12/05 06:00:58;;;;;;;10.73;7.95;;;;;;;0.30;92.27;99400.31;5044461;28;20132;-67
2020/12/05 06:03:24;;;;;;;15.80;7.90;;;;;;;0.21;92.12;99379.22;5057051;28;20438;-66
2020/12/05 06:05:54;;;;;;;11.07;7.75;;;;;;;0.31;91.98;99406.38;5062124;28;20036;-67
2020/12/05 06:08:29;;;;;;;12.90;7.88;;;;;;;0.28;91.91;99394.34;5061035;28;20394;-66
2020/12/05 06:10:58;;;;;;;14.68;7.40;;;;;;;0.27;91.52;99400.56;5063895;28;20044;-66
2020/12/05 06:13:28;;;;;;;16.02;7.97;;;;;;;0.25;92.17;99393.75;5064264;28;20036;-66
2020/12/05 06:15:55;;;;;;;13.52;8.40;;;;;;;0.25;92.20;99393.75;5064008;28;20505;-67
2020/12/05 06:18:20;;;;;;;16.00;7.88;;;;;;;0.24;92.12;99394.72;5061298;28;20035;-66
2020/12/05 06:20:46;;;;;;;13.82;8.38;;;;;;;0.25;92.14;99404.25;5063733;28;20029;-67
2020/12/05 06:23:37;;;;;;;12.18;8.02;;;;;;;0.30;92.40;99408.19;5063415;28;20063;-67
2020/12/05 06:26:03;;;;;;;12.00;7.35;;;;;;;0.40;91.40;99434.53;5061740;28;20115;-67
2020/12/05 06:28:29;;;;;;;12.00;7.68;;;;;;;0.28;90.47;99419.75;5063862;28;20043;-67
2020/12/05 06:30:54;;;;;;;11.13;7.35;;;;;;;0.38;90.61;99441.69;5058587;28;20033;-67
2020/12/05 06:33:41;;;;;;;11.60;7.93;;;;;;;0.35;90.47;99459.44;5060123;28;20032;-67
2020/12/05 06:36:25;;;;;;;13.57;8.02;;;;;;;0.30;90.97;99454.56;5055195;28;20123;-67
2020/12/05 06:39:10;;;;;;;11.52;7.85;;;;;;;0.23;91.17;99453.41;5056043;28;20024;-67
2020/12/05 06:41:37;;;;;;;14.98;8.10;;;;;;;0.21;91.30;99450.88;5049122;28;20151;-67
2020/12/05 06:44:21;;;;;;;13.15;8.13;;;;;;;0.23;91.74;99445.53;5061275;28;20067;-66
2020/12/05 06:46:57;;;;;;;12.88;7.82;;;;;;;0.27;91.40;99444.34;5047753;28;20074;-67
2020/12/05 06:49:46;;;;;;;11.95;8.32;;;;;;;0.29;91.40;99453.75;5051895;28;20032;-67
2020/12/05 06:52:26;;;;;;;17.13;8.93;;;;;;;0.33;91.56;99446.47;5044456;28;20044;-67
2020/12/05 06:54:58;;;;;;;13.05;8.85;;;;;;;0.37;91.80;99454.91;5058967;28;20059;-67
2020/12/05 06:57:28;;;;;;;13.25;8.48;;;;;;;0.46;91.56;99462.09;5056355;28;20521;-67
2020/12/05 07:00:24;;;;;;;15.57;8.93;;;;;;;0.53;90.69;99457.19;5064228;28;20036;-67
2020/12/05 07:02:56;;;;;;;13.40;8.00;;;;;;;0.56;91.22;99475.28;5065041;28;20033;-66
2020/12/05 07:05:23;;;;;;;13.82;8.38;;;;;;;0.65;90.78;99473.72;5057199;28;20051;-67
2020/12/05 07:07:49;;;;;;;11.20;7.53;;;;;;;0.67;90.27;99482.31;5060146;28;20055;-66
2020/12/05 07:10:16;;;;;;;12.75;7.93;;;;;;;0.67;89.97;99485.78;5062383;28;20032;-67
2020/12/05 07:12:42;;;;;;;12.00;8.32;;;;;;;0.68;89.39;99495.31;5067232;28;20040;-67
2020/12/05 07:15:27;;;;;;;11.27;8.60;;;;;;;0.71;89.86;99496.88;5064065;28;20040;-67
2020/12/05 07:17:56;;;;;;;11.10;8.18;;;;;;;0.72;89.54;99499.38;5064908;28;20367;-66
2020/12/05 07:20:22;;;;;;;12.57;8.25;;;;;;;0.74;89.42;99497.47;5067791;28;20086;-66
2020/12/05 07:22:49;;;;;;;13.23;8.48;;;;;;;0.74;89.23;99499.25;5060490;28;20040;-67
2020/12/05 07:25:14;;;;;;;14.43;9.40;;;;;;;0.75;88.85;99509.63;5064328;28;20032;-66
2020/12/05 07:27:42;;;;;;;16.17;9.40;;;;;;;0.74;89.37;99517.66;5061882;28;20894;-66
2020/12/05 07:30:07;;;;;;;14.02;9.15;;;;;;;0.73;89.99;99522.06;5065150;28;20040;-66
2020/12/05 07:32:33;;;;;;;13.73;9.13;;;;;;;0.78;89.74;99532.19;5071097;28;20023;-65
2020/12/05 07:34:59;;;;;;;15.30;9.07;;;;;;;0.76;89.52;99534.09;5065436;28;20507;-66
2020/12/05 07:37:26;;;;;;;14.55;9.43;;;;;;;0.78;89.91;99540.06;5056681;28;20029;-67
2020/12/05 07:39:51;;;;;;;16.65;9.43;;;;;;;0.81;89.58;99525.88;5062770;28;20044;-67
2020/12/05 07:42:17;;;;;;;13.75;10.13;;;;;;;0.91;90.07;99538.13;5059863;28;20052;-67
2020/12/05 07:44:42;;;;;;;13.98;9.57;;;;;;;0.99;89.76;99552.47;5054159;28;20039;-66
2020/12/05 07:47:21;;;;;;;16.10;10.40;;;;;;;1.06;89.09;99566.75;5056708;28;20048;-67
2020/12/05 07:49:53;;;;;;;16.65;10.07;;;;;;;1.11;89.01;99561.97;5058679;28;20101;-67
2020/12/05 07:52:22;;;;;;;17.48;10.35;;;;;;;1.12;88.57;99568.91;5055284;28;20147;-67
2020/12/05 07:54:56;;;;;;;13.48;9.55;;;;;;;1.13;88.79;99569.72;5056377;28;20047;-67
2020/12/05 07:57:32;;;;;;;16.35;10.35;;;;;;;1.16;89.05;99575.56;5053283;28;20110;-67
2020/12/05 08:00:11;;;;;;;13.85;8.85;;;;;;;1.19;88.85;99574.50;5059207;28;20632;-67
2020/12/05 08:02:59;;;;;;;12.50;9.00;;;;;;;0.99;88.30;99550.66;5060422;28;20040;-67
2020/12/05 08:05:43;;;;;;;12.63;8.95;;;;;;;1.31;88.33;99597.16;5044969;28;20028;-66
2020/12/05 08:08:08;;;;;;;12.63;9.07;;;;;;;1.30;87.61;99602.53;5055591;28;20046;-67
2020/12/05 08:10:34;;;;;;;14.73;8.68;;;;;;;1.32;87.97;99600.59;5059092;28;20486;-67
2020/12/05 08:13:18;;;;;;;14.75;9.90;;;;;;;1.35;87.69;99610.88;5058052;28;20122;-67
2020/12/05 08:15:44;;;;;;;15.68;9.68;;;;;;;1.42;87.41;99612.06;5056047;28;20716;-67
2020/12/05 08:18:09;;;;;;;11.05;8.68;;;;;;;1.40;87.43;99611.34;5056874;28;20285;-67
2020/12/05 08:20:41;;;;;;;17.92;9.82;;;;;;;1.39;87.58;99607.06;5058476;28;20089;-68
2020/12/05 08:23:06;;;;;;;14.65;9.10;;;;;;;1.39;87.68;99612.31;5054544;28;20053;-67
2020/12/05 08:25:32;;;;;;;14.18;9.40;;;;;;;1.12;87.61;99586.44;5057491;28;20044;-67
2020/12/05 08:27:57;;;;;;;15.13;10.23;;;;;;;0.77;87.67;99535.75;5037512;28;20048;-67
2020/12/05 08:30:23;;;;;;;21.38;11.30;;;;;;;1.27;87.81;99626.44;5042913;28;20039;-67
2020/12/05 08:32:55;;;;;;;14.15;9.68;;;;;;;1.36;88.12;99633.59;5056892;28;20419;-67
2020/12/05 08:35:21;;;;;;;13.07;9.80;;;;;;;1.39;88.02;99635.97;5057330;28;20101;-67
2020/12/05 08:37:46;;;;;;;19.48;11.35;;;;;;;1.50;88.15;99630.69;5057870;28;20028;-67
2020/12/05 08:40:16;;;;;;;14.70;10.30;;;;;;;1.63;88.07;99633.13;5056986;28;20063;-67
2020/12/05 08:42:50;;;;;;;19.27;10.10;;;;;;;1.77;88.06;99641.69;5057992;28;20048;-67
2020/12/05 08:45:19;;;;;;;14.20;10.70;;;;;;;1.63;87.61;99622.59;5054367;28;20119;-67
2020/12/05 08:47:46;;;;;;;17.48;10.65;;;;;;;1.73;87.54;99640.28;5052205;28;20505;-67
2020/12/05 08:50:25;;;;;;;14.93;10.68;;;;;;;1.76;87.63;99640.03;5038141;28;20040;-67
2020/12/05 08:52:54;;;;;;;16.63;10.68;;;;;;;1.59;87.76;99615.09;5055570;28;20474;-66
2020/12/05 08:55:26;;;;;;;17.17;10.85;;;;;;;1.77;87.89;99647.78;5033310;28;20054;-66
2020/12/05 08:57:56;;;;;;;17.45;10.65;;;;;;;1.85;87.61;99639.28;5053691;28;20036;-66
2020/12/05 09:00:23;;;;;;;13.65;10.05;;;;;;;1.87;87.48;99645.25;5042139;28;20411;-67
2020/12/05 09:02:48;;;;;;;16.40;11.40;;;;;;;1.86;87.80;99646.22;5055497;28;20044;-66
2020/12/05 09:05:14;;;;;;;16.83;11.50;;;;;;;1.85;88.05;99649.81;5056187;28;20032;-67
2020/12/05 09:07:39;;;;;;;13.93;10.93;;;;;;;1.84;88.42;99648.94;5055802;28;20486;-66
2020/12/05 09:10:15;;;;;;;14.82;11.40;;;;;;;1.82;88.92;99645.63;5053662;28;20029;-66
2020/12/05 09:12:40;;;;;;;15.82;11.68;;;;;;;1.81;88.92;99632.59;5057974;28;20094;-66
2020/12/05 09:15:06;;;;;;;15.45;11.02;;;;;;;2.07;88.21;99650.66;5059088;28;20032;-66
2020/12/05 09:17:31;;;;;;;18.23;11.50;;;;;;;1.81;88.00;99611.53;5054517;28;20048;-66
2020/12/05 09:20:26;;;;;;;16.92;11.88;;;;;;;2.23;87.49;99679.19;5055489;28;21404;-67
2020/12/05 09:22:52;;;;;;;15.50;10.95;;;;;;;2.22;86.92;99683.59;5054524;28;20051;-66
2020/12/05 09:25:35;;;;;;;15.82;11.75;;;;;;;2.26;87.17;99685.03;5054585;28;20055;-66
2020/12/05 09:28:01;;;;;;;13.20;10.85;;;;;;;2.03;87.78;99646.63;5047096;28;20083;-66
2020/12/05 09:30:27;;;;;;;16.17;10.27;;;;;;;2.38;87.16;99688.41;5055801;28;20040;-66
2020/12/05 09:32:53;;;;;;;17.60;11.80;;;;;;;2.41;87.27;99685.53;5060317;28;20032;-67
2020/12/05 09:35:19;;;;;;;16.80;12.00;;;;;;;2.50;86.93;99691.00;5058876;28;20036;-67
2020/12/05 09:37:45;;;;;;;17.20;11.82;;;;;;;2.43;87.72;99686.22;5058529;28;20169;-66
2020/12/05 09:40:13;;;;;;;15.35;12.00;;;;;;;2.46;87.61;99685.13;5061679;28;20048;-67
2020/12/05 09:42:39;;;;;;;16.73;11.50;;;;;;;2.62;87.50;99683.84;5063200;28;20184;-67
2020/12/05 09:45:05;;;;;;;14.10;10.93;;;;;;;2.67;86.69;99686.94;5062389;28;20048;-67
2020/12/05 09:47:31;;;;;;;15.20;10.93;;;;;;;2.70;86.83;99692.75;5060049;28;20094;-67
2020/12/05 09:49:59;;;;;;;17.73;10.93;;;;;;;2.74;86.57;99707.34;5057284;28;20048;-67
2020/12/05 09:52:25;;;;;;;13.35;10.93;;;;;;;2.78;86.41;99705.28;5061961;28;20128;-66
2020/12/05 09:54:54;;;;;;;14.80;10.65;;;;;;;2.88;86.46;99715.88;5059453;28;20722;-67
2020/12/05 09:57:19;;;;;;;;;;;;;;;2.95;86.35;99718.84;5060129;28;20117;-66
2020/12/05 09:59:45;;;;;;;12.07;10.13;;;;;;;2.79;86.21;99687.66;5058207;28;20318;-67
2020/12/05 10:02:10;;;;;;;19.60;13.25;;;;;;;3.01;86.09;99727.03;5062892;28;20137;-67
2020/12/05 10:04:36;;;;;;;13.13;11.00;;;;;;;2.98;86.89;99723.84;5062459;28;20048;-67
2020/12/05 10:07:01;;;;;;;14.20;10.65;;;;;;;3.07;86.32;99720.41;5064539;28;20036;-66
2020/12/05 10:09:27;;;;;;;12.95;10.55;;;;;;;3.15;86.27;99719.75;5062052;28;20059;-67
2020/12/05 10:11:53;;;;;;;16.88;10.68;;;;;;;3.22;85.59;99715.59;5079505;28;20131;-66
2020/12/05 10:14:18;;;;;;;12.65;10.70;;;;;;;3.28;85.21;99725.63;5061615;28;20123;-66
2020/12/05 10:16:44;;;;;;;17.52;11.45;;;;;;;3.30;85.61;99721.06;5060833;28;20348;-67
2020/12/05 10:19:09;;;;;;;16.75;11.30;;;;;;;3.22;85.58;99705.06;5062579;28;20135;-67
2020/12/05 10:21:35;;;;;;;14.30;11.18;;;;;;;3.25;86.13;99717.97;5062753;28;20128;-67
2020/12/05 10:24:01;;;;;;;14.98;11.57;;;;;;;3.33;85.75;99717.31;5063220;28;20041;-67
2020/12/05 10:26:26;;;;;;;13.88;10.90;;;;;;;3.36;85.48;99707.31;5060115;28;20163;-67
2020/12/05 10:28:52;;;;;;;12.68;10.23;;;;;;;3.40;85.31;99713.16;5059655;28;20166;-67
2020/12/05 10:31:17;;;;;;;14.02;10.32;;;;;;;3.43;84.82;99707.63;5060331;28;20123;-67
2020/12/05 10:33:43;;;;;;;13.07;10.52;;;;;;;3.42;85.19;99705.13;5059598;28;20120;-67
2020/12/05 10:36:08;;;;;;;14.93;10.13;;;;;;;3.45;85.37;99704.88;5060004;28;20123;-67
2020/12/05 10:38:34;;;;;;;15.88;10.07;;;;;;;3.46;84.51;99701.25;5063107;28;20032;-68
2020/12/05 10:40:59;;;;;;;13.63;10.27;;;;;;;3.46;85.33;99699.44;5063933;28;20127;-67
2020/12/05 10:43:25;;;;;;;12.10;9.75;;;;;;;3.54;84.46;99698.75;5061358;28;20038;-68
2020/12/05 10:45:50;;;;;;;14.75;9.65;;;;;;;3.60;84.47;99707.94;5038563;28;20120;-68
2020/12/05 10:48:16;;;;;;;13.95;10.18;;;;;;;3.63;84.58;99716.41;5063368;28;20119;-68
2020/12/05 10:50:41;;;;;;;14.98;10.02;;;;;;;3.64;84.51;99709.34;5054946;28;20119;-68
2020/12/05 10:53:07;;;;;;;13.95;9.80;;;;;;;3.48;84.63;99681.69;5065124;28;20131;-67
2020/12/05 10:55:32;;;;;;;12.82;9.68;;;;;;;3.69;84.50;99709.75;5077138;28;20059;-66
2020/12/05 10:57:58;;;;;;;10.57;9.02;;;;;;;3.72;84.41;99711.31;5061821;28;20063;-67
2020/12/05 11:00:24;;;;;;;11.50;9.13;;;;;;;3.76;84.29;99710.88;5059470;28;20116;-67
2020/12/05 11:02:49;;;;;;;12.95;9.13;;;;;;;3.75;84.55;99726.84;5061583;28;20421;-67
2020/12/05 11:05:15;;;;;;;12.93;9.27;;;;;;;3.77;84.96;99709.06;5058468;28;20047;-68
2020/12/05 11:07:40;;;;;;;11.57;8.95;;;;;;;3.68;84.05;99687.81;5061307;28;20083;-67
2020/12/05 11:10:06;;;;;;;11.75;8.75;;;;;;;3.79;84.22;99704.50;5060672;28;20561;-67
2020/12/05 11:12:31;;;;;;;11.25;8.10;;;;;;;3.80;83.75;99719.38;5064442;28;20108;-67
2020/12/05 11:14:57;;;;;;;11.50;8.57;;;;;;;3.84;84.58;99718.13;5063486;28;20147;-68
2020/12/05 11:17:22;;;;;;;11.82;8.00;;;;;;;3.92;84.08;99730.63;5063615;28;20123;-68
2020/12/05 11:19:48;;;;;;;10.75;8.20;;;;;;;3.92;83.51;99736.75;5079344;28;20130;-68
2020/12/05 11:22:13;;;;;;;11.88;7.85;;;;;;;3.96;83.27;99738.13;5063512;28;20056;-68
2020/12/05 11:24:39;;;;;;;10.65;7.65;;;;;;;3.96;83.05;99732.88;5058892;28;20036;-68
2020/12/05 11:27:04;;;;;;;11.75;7.60;;;;;;;4.06;82.42;99734.66;5077038;28;20033;-68
2020/12/05 11:29:30;;;;;;;10.45;7.00;;;;;;;3.96;82.29;99719.66;5062321;28;20032;-68
2020/12/05 11:31:55;;;;;;;10.32;6.20;;;;;;;4.11;82.05;99732.47;5059294;28;20044;-68
2020/12/05 11:34:21;;;;;;;12.05;6.28;;;;;;;4.18;82.57;99744.13;5061549;28;20087;-68
2020/12/05 11:36:47;;;;;;;9.00;5.43;;;;;;;4.25;82.04;99754.97;5058042;28;20047;-68